NCAR-RAP Real-Time Weather Data

Output produced by METARs form (24 April 2018  16:20 UTC)
found at http://weather.rap.ucar.edu/surface/
 
RJFM 241200Z 21007KT 9999 FEW010 SCT030 BKN045 23/21 Q1002
RJFM 241100Z 16011KT 8000 -SHRA FEW010 SCT030 BKN040 22/21 Q1002
RJFM 241000Z 17011KT 8000 -SHRA FEW010 SCT020 BKN025 22/21 Q1002
RJFM 240900Z 16012KT 8000 -SHRA FEW010 BKN020 BKN025 22/21 Q1003
RJFM 240800Z 17012KT 8000 -SHRA FEW010 BKN025 BKN030 22/21 Q1003
RJFM 240710Z 15012KT 5000 -SHRA BR FEW010 SCT020 BKN025 21/21 Q1004 RMK 1ST010 3CU020 6CU025 A2965
RJFM 240700Z 18008KT 3500 SHRA BR FEW010 SCT020 BKN025 21/21 Q1004
RJFM 240628Z 17008KT 3000 SHRA BR FEW010 BKN020 BKN025 21/21 Q1004 RMK 1ST010 5CU020 6CU025 A2967
RJFM 240600Z 16007KT 6000 -SHRA FEW010 SCT020 BKN025 22/21 Q1005
RJFM 240514Z 15010KT 5000 -SHRA BR FEW010 SCT020 BKN025 21/21 Q1006 RMK 1ST010 3CU020 5CU025 A2971
RJFM 240500Z 15010KT 4500 -SHRA BR FEW010 SCT020 BKN025 22/21 Q1006
RJFM 240426Z 14007KT 5000 -SHRA BR FEW010 SCT020 BKN025 22/21 Q1006 RMK 1ST010 3CU020 5CU025 A2972
RJFM 240416Z 13007KT 4500 SHRA BR FEW010 SCT020 BKN025 22/21 Q1006 RMK 1ST010 3CU020 5CU025 A2972
RJFM 240400Z 17005KT 140V210 4000 -SHRA BR FEW010 BKN020 BKN025 23/21 Q1006
RJFM 240300Z 18004KT 150V210 9999 -SHRA FEW010 BKN020 BKN025 22/21 Q1007
RJFM 240200Z 16006KT 120V190 6000 -SHRA FEW010 SCT020 BKN025 22/21 Q1008
RJFM 240100Z VRB02KT 9000 FEW010 SCT025 BKN030 22/21 Q1009
RJFM 240000Z VRB03KT 9000 FEW010 BKN030 BKN035 21/20 Q1009
RJFM 232300Z 20008KT 170V280 6000 -SHRA FEW010 SCT020 BKN025 20/19 Q1010
RJFM 232224Z VRB02KT 5000 -SHRA BR FEW015 BKN025 BKN030 19/19 Q1010 RMK 1CU015 6CU025 7CU030 A2984
RJFM 232200Z 30003KT 210V350 4000 -SHRA BR FEW015 SCT020 BKN030 19/19 Q1010
RJFM 232110Z 31003KT 9999 FEW020 SCT025 BKN030 20/18 Q1010 RMK 1CU020 3CU025 5CU030 A2984
RJFM 231200Z 18006KT 9999 FEW015 SCT025 BKN030 22/18 Q1015
RJFM 231100Z 15010KT 9999 FEW015 SCT025 BKN030 21/18 Q1015
RJFM 231000Z 16004KT 9999 -SHRA FEW015 SCT020 BKN025 21/18 Q1015
RJFM 230900Z 17005KT 9999 FEW020 BKN025 BKN030 21/18 Q1015
RJFM 230800Z 17008KT 9999 FEW020 BKN025 BKN030 22/18 Q1014
RJFM 230700Z 15006KT 9999 FEW020 BKN025 BKN030 22/18 Q1015
RJFM 230600Z 10005KT 080V140 9999 FEW020 BKN030 BKN035 21/18 Q1015
RJFM 230500Z 09005KT 9999 FEW020 BKN030 BKN035 22/19 Q1016
RJFM 230400Z 06005KT 9999 FEW020 BKN035 21/18 Q1016
RJFM 230300Z 04005KT 350V070 9999 FEW020 BKN035 21/17 Q1017
RJFM 230200Z 02004KT 9999 SCT025 BKN035 20/18 Q1017
RJFM 230100Z 03003KT 360V120 9999 FEW020 BKN038 20/17 Q1018
RJFM 230000Z VRB02KT 9999 FEW025 BKN040 20/16 Q1018
RJFM 222300Z 31003KT 280V340 9999 FEW020 BKN042 20/16 Q1018
RJFM 222200Z 28004KT 9999 FEW020 BKN040 18/16 Q1018
RJFM 222110Z 27005KT 9999 FEW020 BKN032 17/16 Q1017 RMK 1CU020 7SC032 A3005
RJFM 221200Z 13004KT 9999 FEW030 SCT045 19/17 Q1018
RJFM 221100Z 13004KT 9999 FEW030 SCT045 20/17 Q1018
RJFM 221000Z 17007KT 9999 FEW025 SCT045 BKN/// 21/15 Q1017
RJFM 220900Z 15010KT 9999 FEW025 SCT045 BKN/// 21/16 Q1017
RJFM 220800Z 15009KT 9999 FEW025 SCT030 BKN045 22/16 Q1017
RJFM 220700Z 14009KT 9999 FEW030 SCT040 BKN/// 23/16 Q1017
RJFM 220600Z 14009KT 9999 FEW030 23/16 Q1018
RJFM 220500Z 13011KT 9999 FEW030 SCT/// 23/16 Q1018